Time,TemperatureF,DewpointF,PressureIn,WindDirection,WindDirectionDegrees,WindSpeedMPH,WindSpeedGustMPH,Humidity,HourlyPrecipIn,Conditions,Clouds,dailyrainin,SolarRadiationWatts/m^2,SoftwareType,DateUTC
2013-08-21 00:03:00,55.1,52.8,29.90,NE,46,0.0,0.0,92,0.00,,,0.00,0,Wunderground v.1.15,2013-08-21 07:03:00,
2013-08-21 00:09:00,55.1,52.8,29.90,NE,46,1.0,5.0,92,0.00,,,0.00,0,Wunderground v.1.15,2013-08-21 07:09:00,
2013-08-21 00:14:00,55.0,52.7,29.90,NE,42,1.0,1.0,92,0.00,,,0.00,0,Wunderground v.1.15,2013-08-21 07:14:00,
2013-08-21 00:19:00,55.0,53.0,29.90,NE,34,0.0,1.0,93,0.00,,,0.00,0,Wunderground v.1.15,2013-08-21 07:19:00,
2013-08-21 00:25:00,54.8,52.5,29.90,NNE,14,2.0,6.0,92,0.00,,,0.00,0,Wunderground v.1.15,2013-08-21 07:25:00,
2013-08-21 00:30:00,54.8,52.8,29.90,NNE,21,2.0,2.0,93,0.00,,,0.00,0,Wunderground v.1.15,2013-08-21 07:30:00,
2013-08-21 00:35:00,54.7,52.7,29.90,NE,36,2.0,6.0,93,0.00,,,0.00,0,Wunderground v.1.15,2013-08-21 07:35:00,
2013-08-21 00:41:00,54.7,52.7,29.90,NE,37,3.0,3.0,93,0.00,,,0.00,0,Wunderground v.1.15,2013-08-21 07:41:00,
2013-08-21 00:46:00,54.7,52.7,29.90,NE,36,3.0,4.0,93,0.00,,,0.00,0,Wunderground v.1.15,2013-08-21 07:46:00,
2013-08-21 00:52:00,54.7,52.7,29.90,NE,35,2.0,2.0,93,0.00,,,0.00,0,Wunderground v.1.15,2013-08-21 07:52:00,
2013-08-21 00:57:00,54.7,52.7,29.90,NE,35,0.0,2.0,93,0.00,,,0.00,0,Wunderground v.1.15,2013-08-21 07:57:00,
2013-08-21 01:05:00,54.7,52.7,29.90,NE,35,0.0,0.0,93,0.00,,,0.00,0,Wunderground v.1.15,2013-08-21 08:05:00,
2013-08-21 01:10:00,54.6,52.6,29.90,NE,35,0.0,0.0,93,0.00,,,0.00,0,Wunderground v.1.15,2013-08-21 08:10:00,
2013-08-21 01:16:00,54.6,52.9,29.90,NE,35,0.0,0.0,94,0.00,,,0.00,0,Wunderground v.1.15,2013-08-21 08:16:00,
2013-08-21 01:21:00,54.6,52.9,29.90,NE,36,0.0,0.0,94,0.00,,,0.00,0,Wunderground v.1.15,2013-08-21 08:21:00,
2013-08-21 01:26:00,54.7,53.0,29.90,NE,36,0.0,0.0,94,0.00,,,0.00,0,Wunderground v.1.15,2013-08-21 08:26:00,
2013-08-21 01:32:00,54.6,52.9,29.90,NE,36,0.0,0.0,94,0.00,,,0.00,0,Wunderground v.1.15,2013-08-21 08:32:00,
2013-08-21 01:37:00,54.6,52.9,29.90,NE,36,0.0,0.0,94,0.00,,,0.00,0,Wunderground v.1.15,2013-08-21 08:37:00,
2013-08-21 01:42:00,54.6,52.9,29.90,NE,36,0.0,0.0,94,0.00,,,0.00,0,Wunderground v.1.15,2013-08-21 08:42:00,
2013-08-21 01:47:00,54.6,52.9,29.90,NE,36,0.0,0.0,94,0.00,,,0.00,0,Wunderground v.1.15,2013-08-21 08:47:00,
2013-08-21 01:53:00,54.6,52.9,29.90,NE,36,0.0,0.0,94,0.00,,,0.00,0,Wunderground v.1.15,2013-08-21 08:53:00,
2013-08-21 01:58:00,54.6,52.9,29.90,NE,36,0.0,0.0,94,0.00,,,0.00,0,Wunderground v.1.15,2013-08-21 08:58:00,
2013-08-21 02:03:00,54.5,52.8,29.90,NE,36,0.0,0.0,94,0.00,,,0.00,0,Wunderground v.1.15,2013-08-21 09:03:00,
2013-08-21 02:09:00,54.5,52.8,29.90,NE,36,0.0,0.0,94,0.00,,,0.00,0,Wunderground v.1.15,2013-08-21 09:09:00,
2013-08-21 02:15:00,54.6,52.9,29.90,NE,36,0.0,0.0,94,0.00,,,0.00,0,Wunderground v.1.15,2013-08-21 09:15:00,
2013-08-21 02:20:00,54.5,52.8,29.90,NE,36,0.0,0.0,94,0.00,,,0.00,0,Wunderground v.1.15,2013-08-21 09:20:00,
2013-08-21 02:26:00,54.5,52.8,29.89,NE,36,0.0,0.0,94,0.00,,,0.00,0,Wunderground v.1.15,2013-08-21 09:26:00,
2013-08-21 02:32:00,54.6,52.9,29.89,NE,36,0.0,0.0,94,0.00,,,0.00,0,Wunderground v.1.15,2013-08-21 09:32:00,
2013-08-21 02:37:00,54.6,52.9,29.89,NE,36,0.0,0.0,94,0.00,,,0.00,0,Wunderground v.1.15,2013-08-21 09:37:00,
2013-08-21 02:42:00,54.5,52.8,29.89,NE,37,0.0,0.0,94,0.00,,,0.00,0,Wunderground v.1.15,2013-08-21 09:42:00,
2013-08-21 02:48:00,54.6,52.9,29.89,NE,36,0.0,0.0,94,0.00,,,0.00,0,Wunderground v.1.15,2013-08-21 09:48:00,
2013-08-21 02:54:00,54.6,52.9,29.90,NE,36,0.0,0.0,94,0.00,,,0.00,0,Wunderground v.1.15,2013-08-21 09:54:00,
2013-08-21 02:59:00,54.6,52.9,29.89,NE,36,0.0,0.0,94,0.00,,,0.00,0,Wunderground v.1.15,2013-08-21 09:59:00,
2013-08-21 03:05:00,54.5,52.8,29.89,NE,36,0.0,0.0,94,0.00,,,0.00,0,Wunderground v.1.15,2013-08-21 10:05:00,
2013-08-21 03:10:00,54.5,52.8,29.89,NE,36,0.0,0.0,94,0.00,,,0.00,0,Wunderground v.1.15,2013-08-21 10:10:00,
2013-08-21 03:15:00,54.5,53.1,29.89,NE,36,0.0,0.0,95,0.00,,,0.00,0,Wunderground v.1.15,2013-08-21 10:15:00,
2013-08-21 03:20:00,54.5,53.1,29.89,NE,36,0.0,0.0,95,0.00,,,0.00,0,Wunderground v.1.15,2013-08-21 10:20:00,
2013-08-21 03:26:00,54.5,53.1,29.89,NE,36,0.0,0.0,95,0.00,,,0.00,0,Wunderground v.1.15,2013-08-21 10:26:00,
2013-08-21 03:31:00,54.5,53.1,29.89,NE,36,0.0,0.0,95,0.00,,,0.00,0,Wunderground v.1.15,2013-08-21 10:31:00,
2013-08-21 03:36:00,54.5,53.1,29.89,NE,36,0.0,0.0,95,0.00,,,0.00,0,Wunderground v.1.15,2013-08-21 10:36:00,
2013-08-21 03:42:00,54.4,53.0,29.89,NE,36,0.0,0.0,95,0.00,,,0.00,0,Wunderground v.1.15,2013-08-21 10:42:00,
2013-08-21 03:47:00,54.4,53.0,29.89,NE,36,0.0,0.0,95,0.00,,,0.00,0,Wunderground v.1.15,2013-08-21 10:47:00,
2013-08-21 03:53:00,54.4,53.0,29.89,NE,36,0.0,0.0,95,0.00,,,0.00,0,Wunderground v.1.15,2013-08-21 10:53:00,
2013-08-21 03:58:00,54.4,53.0,29.89,NE,36,0.0,0.0,95,0.00,,,0.00,0,Wunderground v.1.15,2013-08-21 10:58:00,
2013-08-21 04:03:00,54.5,53.1,29.89,NE,36,0.0,0.0,95,0.00,,,0.00,0,Wunderground v.1.15,2013-08-21 11:03:00,
2013-08-21 04:08:00,54.5,53.1,29.89,NE,36,0.0,0.0,95,0.00,,,0.00,0,Wunderground v.1.15,2013-08-21 11:08:00,
2013-08-21 04:13:00,54.6,53.2,29.89,NE,36,0.0,0.0,95,0.00,,,0.00,0,Wunderground v.1.15,2013-08-21 11:13:00,
2013-08-21 04:19:00,54.8,53.4,29.89,NE,36,0.0,0.0,95,0.00,,,0.00,0,Wunderground v.1.15,2013-08-21 11:19:00,
2013-08-21 04:24:00,54.8,53.4,29.89,NE,36,0.0,0.0,95,0.00,,,0.00,0,Wunderground v.1.15,2013-08-21 11:24:00,
2013-08-21 04:30:00,54.8,53.4,29.89,NE,36,0.0,0.0,95,0.00,,,0.00,0,Wunderground v.1.15,2013-08-21 11:30:00,
2013-08-21 04:36:00,54.8,53.4,29.89,NE,36,0.0,3.0,95,0.00,,,0.00,0,Wunderground v.1.15,2013-08-21 11:36:00,
2013-08-21 04:41:00,54.7,53.3,29.89,NE,36,0.0,0.0,95,0.00,,,0.00,0,Wunderground v.1.15,2013-08-21 11:41:00,
2013-08-21 04:46:00,54.7,53.3,29.89,NE,36,0.0,0.0,95,0.00,,,0.00,0,Wunderground v.1.15,2013-08-21 11:46:00,
2013-08-21 04:52:00,54.7,53.3,29.89,NE,35,0.0,0.0,95,0.00,,,0.00,0,Wunderground v.1.15,2013-08-21 11:52:00,
2013-08-21 04:57:00,54.7,53.3,29.89,NE,35,0.0,0.0,95,0.00,,,0.00,0,Wunderground v.1.15,2013-08-21 11:57:00,
2013-08-21 05:02:00,54.7,53.3,29.89,NE,36,0.0,0.0,95,0.00,,,0.00,0,Wunderground v.1.15,2013-08-21 12:02:00,
2013-08-21 05:08:00,54.8,53.4,29.89,NE,35,0.0,0.0,95,0.00,,,0.00,0,Wunderground v.1.15,2013-08-21 12:08:00,
2013-08-21 05:13:00,54.8,53.4,29.89,NE,35,0.0,0.0,95,0.00,,,0.00,0,Wunderground v.1.15,2013-08-21 12:13:00,
2013-08-21 05:18:00,54.9,53.5,29.89,NNE,19,0.0,0.0,95,0.00,,,0.00,0,Wunderground v.1.15,2013-08-21 12:18:00,
2013-08-21 05:23:00,55.0,53.6,29.89,NNE,19,0.0,0.0,95,0.00,,,0.00,0,Wunderground v.1.15,2013-08-21 12:23:00,
2013-08-21 05:29:00,55.0,53.6,29.89,NNE,19,0.0,0.0,95,0.00,,,0.00,0,Wunderground v.1.15,2013-08-21 12:29:00,
2013-08-21 05:34:00,55.0,53.6,29.90,NNE,19,0.0,0.0,95,0.00,,,0.00,0,Wunderground v.1.15,2013-08-21 12:34:00,
2013-08-21 05:40:00,55.1,53.7,29.89,NNE,19,0.0,0.0,95,0.00,,,0.00,0,Wunderground v.1.15,2013-08-21 12:40:00,
2013-08-21 05:45:00,55.1,53.7,29.89,NNE,19,0.0,0.0,95,0.00,,,0.00,0,Wunderground v.1.15,2013-08-21 12:45:00,
2013-08-21 05:50:00,55.1,53.7,29.90,NNE,19,0.0,0.0,95,0.00,,,0.00,0,Wunderground v.1.15,2013-08-21 12:50:00,
2013-08-21 05:55:00,55.1,53.7,29.90,NNE,19,0.0,0.0,95,0.00,,,0.00,0,Wunderground v.1.15,2013-08-21 12:55:00,
2013-08-21 06:01:00,55.1,53.7,29.90,NNE,19,0.0,0.0,95,0.00,,,0.00,0,Wunderground v.1.15,2013-08-21 13:01:00,
2013-08-21 06:06:00,55.1,53.7,29.91,North,10,1.0,7.0,95,0.00,,,0.00,0,Wunderground v.1.15,2013-08-21 13:06:00,
2013-08-21 06:12:00,55.0,53.6,29.91,North,10,1.0,1.0,95,0.00,,,0.00,0,Wunderground v.1.15,2013-08-21 13:12:00,
2013-08-21 06:18:00,55.0,53.6,29.91,NNE,19,0.0,1.0,95,0.00,,,0.00,0,Wunderground v.1.15,2013-08-21 13:18:00,
2013-08-21 06:23:00,54.9,53.5,29.91,North,355,0.0,0.0,95,0.00,,,0.00,0,Wunderground v.1.15,2013-08-21 13:23:00,
2013-08-21 06:29:00,54.9,53.5,29.91,North,11,1.0,5.0,95,0.00,,,0.00,0,Wunderground v.1.15,2013-08-21 13:29:00,
2013-08-21 06:35:00,54.8,53.4,29.92,NNE,15,1.0,1.0,95,0.00,,,0.00,0,Wunderground v.1.15,2013-08-21 13:35:00,
2013-08-21 06:40:00,54.8,53.4,29.92,NNE,14,0.0,0.0,95,0.00,,,0.00,0,Wunderground v.1.15,2013-08-21 13:40:00,
2013-08-21 06:45:00,54.8,53.4,29.92,NNE,14,0.0,0.0,95,0.00,,,0.00,5,Wunderground v.1.15,2013-08-21 13:45:00,
2013-08-21 06:51:00,54.8,53.4,29.92,NNE,15,0.0,0.0,95,0.00,,,0.00,7,Wunderground v.1.15,2013-08-21 13:51:00,
2013-08-21 06:56:00,54.8,53.4,29.92,NNE,15,0.0,0.0,95,0.00,,,0.00,11,Wunderground v.1.15,2013-08-21 13:56:00,
2013-08-21 07:01:00,54.8,53.4,29.92,NNE,17,0.0,0.0,95,0.00,,,0.00,12,Wunderground v.1.15,2013-08-21 14:01:00,
2013-08-21 07:07:00,54.8,53.4,29.92,NNE,17,0.0,0.0,95,0.00,,,0.00,16,Wunderground v.1.15,2013-08-21 14:07:00,
2013-08-21 07:12:00,54.8,53.4,29.92,NNE,17,0.0,0.0,95,0.00,,,0.00,18,Wunderground v.1.15,2013-08-21 14:12:00,
2013-08-21 07:18:00,54.8,53.4,29.93,NNE,24,0.0,0.0,95,0.00,,,0.00,21,Wunderground v.1.15,2013-08-21 14:18:00,
2013-08-21 07:23:00,54.8,53.4,29.93,North,11,0.0,0.0,95,0.00,,,0.00,25,Wunderground v.1.15,2013-08-21 14:23:00,
2013-08-21 07:29:00,54.8,53.4,29.93,NNE,13,0.0,0.0,95,0.00,,,0.00,28,Wunderground v.1.15,2013-08-21 14:29:00,
2013-08-21 07:34:00,54.8,53.4,29.93,NNE,16,2.0,7.0,95,0.00,,,0.00,30,Wunderground v.1.15,2013-08-21 14:34:00,
2013-08-21 07:40:00,54.7,53.3,29.93,NNE,16,2.0,5.0,95,0.00,,,0.00,37,Wunderground v.1.15,2013-08-21 14:40:00,
2013-08-21 07:46:00,54.7,53.3,29.94,North,9,3.0,5.0,95,0.00,,,0.00,40,Wunderground v.1.15,2013-08-21 14:46:00,
2013-08-21 07:51:00,54.7,53.3,29.93,NNE,13,3.0,4.0,95,0.00,,,0.00,44,Wunderground v.1.15,2013-08-21 14:51:00,
2013-08-21 07:57:00,54.7,53.3,29.94,NNE,18,2.0,4.0,95,0.00,,,0.00,53,Wunderground v.1.15,2013-08-21 14:57:00,
2013-08-21 08:02:00,54.7,53.3,29.93,NNE,19,0.0,1.0,95,0.00,,,0.00,56,Wunderground v.1.15,2013-08-21 15:02:00,
2013-08-21 08:07:00,54.7,53.3,29.93,NNE,18,0.0,1.0,95,0.00,,,0.00,65,Wunderground v.1.15,2013-08-21 15:07:00,
2013-08-21 08:13:00,54.8,53.4,29.93,NNE,19,0.0,0.0,95,0.00,,,0.00,74,Wunderground v.1.15,2013-08-21 15:13:00,
2013-08-21 08:18:00,54.9,53.5,29.94,NNE,17,0.0,0.0,95,0.00,,,0.00,84,Wunderground v.1.15,2013-08-21 15:18:00,
2013-08-21 08:24:00,55.0,53.6,29.94,ENE,71,0.0,0.0,95,0.00,,,0.00,84,Wunderground v.1.15,2013-08-21 15:24:00,
2013-08-21 08:29:00,55.1,53.7,29.94,ENE,70,0.0,0.0,95,0.00,,,0.00,93,Wunderground v.1.15,2013-08-21 15:29:00,
2013-08-21 08:34:00,55.2,53.8,29.94,NE,36,0.0,0.0,95,0.00,,,0.00,91,Wunderground v.1.15,2013-08-21 15:34:00,
2013-08-21 08:40:00,55.4,54.0,29.94,North,360,0.0,0.0,95,0.00,,,0.00,118,Wunderground v.1.15,2013-08-21 15:40:00,
2013-08-21 08:45:00,55.4,54.0,29.94,North,5,1.0,5.0,95,0.00,,,0.00,123,Wunderground v.1.15,2013-08-21 15:45:00,
2013-08-21 08:51:00,55.5,54.1,29.94,NNE,27,1.0,6.0,95,0.00,,,0.00,141,Wunderground v.1.15,2013-08-21 15:51:00,
2013-08-21 08:56:00,55.6,54.2,29.94,North,360,3.0,6.0,95,0.00,,,0.00,142,Wunderground v.1.15,2013-08-21 15:56:00,
2013-08-21 09:01:00,55.7,54.3,29.94,NNE,13,2.0,3.0,95,0.00,,,0.00,160,Wunderground v.1.15,2013-08-21 16:01:00,
2013-08-21 09:07:00,55.8,54.4,29.94,NNE,13,2.0,7.0,95,0.00,,,0.00,160,Wunderground v.1.15,2013-08-21 16:07:00,
2013-08-21 09:13:00,55.9,54.5,29.95,NNE,30,4.0,8.0,95,0.00,,,0.00,190,Wunderground v.1.15,2013-08-21 16:13:00,
2013-08-21 09:19:00,56.0,54.6,29.95,NNE,21,3.0,8.0,95,0.00,,,0.00,197,Wunderground v.1.15,2013-08-21 16:19:00,
2013-08-21 09:24:00,56.1,54.4,29.95,NNE,25,3.0,8.0,94,0.00,,,0.00,202,Wunderground v.1.15,2013-08-21 16:24:00,
2013-08-21 09:30:00,56.3,54.6,29.95,NE,37,4.0,5.0,94,0.00,,,0.00,229,Wunderground v.1.15,2013-08-21 16:30:00,
2013-08-21 09:35:00,56.3,54.6,29.95,NNE,28,6.0,10.0,94,0.00,,,0.00,255,Wunderground v.1.15,2013-08-21 16:35:00,
2013-08-21 09:41:00,56.5,54.8,29.95,NE,34,8.0,8.0,94,0.00,,,0.00,253,Wunderground v.1.15,2013-08-21 16:41:00,
2013-08-21 09:46:00,56.7,55.0,29.95,NE,40,5.0,8.0,94,0.00,,,0.00,253,Wunderground v.1.15,2013-08-21 16:46:00,
2013-08-21 09:52:00,57.0,55.0,29.95,NNE,32,5.0,9.0,93,0.00,,,0.00,260,Wunderground v.1.15,2013-08-21 16:52:00,
2013-08-21 09:57:00,57.2,55.2,29.95,NE,34,5.0,9.0,93,0.00,,,0.00,272,Wunderground v.1.15,2013-08-21 16:57:00,
2013-08-21 10:02:00,57.3,55.0,29.95,NE,36,6.0,9.0,92,0.00,,,0.00,339,Wunderground v.1.15,2013-08-21 17:02:00,
2013-08-21 10:08:00,57.4,55.1,29.95,North,360,8.0,10.0,92,0.00,,,0.00,404,Wunderground v.1.15,2013-08-21 17:08:00,
2013-08-21 10:13:00,57.6,55.3,29.95,NNE,12,5.0,7.0,92,0.00,,,0.00,411,Wunderground v.1.15,2013-08-21 17:13:00,
2013-08-21 10:19:00,57.8,55.2,29.95,NE,44,4.0,10.0,91,0.00,,,0.00,387,Wunderground v.1.15,2013-08-21 17:19:00,
2013-08-21 10:24:00,58.1,55.2,29.95,NE,38,5.0,9.0,90,0.00,,,0.00,401,Wunderground v.1.15,2013-08-21 17:24:00,
2013-08-21 10:29:00,58.2,55.3,29.95,NNW,346,5.0,9.0,90,0.00,,,0.00,714,Wunderground v.1.15,2013-08-21 17:29:00,
2013-08-21 10:35:00,58.6,55.4,29.95,North,11,5.0,9.0,89,0.00,,,0.00,376,Wunderground v.1.15,2013-08-21 17:35:00,
2013-08-21 10:41:00,58.8,55.3,29.95,NNE,12,5.0,8.0,88,0.00,,,0.00,591,Wunderground v.1.15,2013-08-21 17:41:00,
2013-08-21 10:46:00,59.1,55.2,29.95,NNE,17,5.0,9.0,87,0.00,,,0.00,636,Wunderground v.1.15,2013-08-21 17:46:00,
2013-08-21 10:52:00,59.4,55.5,29.95,NE,40,6.0,11.0,87,0.00,,,0.00,701,Wunderground v.1.15,2013-08-21 17:52:00,
2013-08-21 10:57:00,60.0,55.8,29.95,NNE,15,5.0,11.0,86,0.00,,,0.00,733,Wunderground v.1.15,2013-08-21 17:57:00,
2013-08-21 11:03:00,60.5,55.6,29.95,NE,36,4.0,10.0,84,0.00,,,0.00,758,Wunderground v.1.15,2013-08-21 18:03:00,
2013-08-21 11:08:00,60.7,55.5,29.95,ENE,65,6.0,11.0,83,0.00,,,0.00,779,Wunderground v.1.15,2013-08-21 18:08:00,
2013-08-21 11:14:00,60.9,55.7,29.95,North,360,8.0,11.0,83,0.00,,,0.00,809,Wunderground v.1.15,2013-08-21 18:14:00,
2013-08-21 11:19:00,61.1,55.6,29.95,NNE,31,8.0,12.0,82,0.00,,,0.00,856,Wunderground v.1.15,2013-08-21 18:19:00,
2013-08-21 11:24:00,61.3,55.8,29.95,NE,34,9.0,12.0,82,0.00,,,0.00,854,Wunderground v.1.15,2013-08-21 18:24:00,
2013-08-21 11:30:00,61.9,56.0,29.96,NNE,25,8.0,8.0,81,0.00,,,0.00,819,Wunderground v.1.15,2013-08-21 18:30:00,
2013-08-21 11:35:00,62.2,56.0,29.96,NNE,30,8.0,10.0,80,0.00,,,0.00,831,Wunderground v.1.15,2013-08-21 18:35:00,
2013-08-21 11:41:00,62.2,56.0,29.96,NNW,339,7.0,7.0,80,0.00,,,0.00,842,Wunderground v.1.15,2013-08-21 18:41:00,
2013-08-21 11:46:00,62.5,55.9,29.95,NNE,17,7.0,11.0,79,0.00,,,0.00,853,Wunderground v.1.15,2013-08-21 18:46:00,
2013-08-21 11:51:00,62.6,56.0,29.95,NNE,22,8.0,13.0,79,0.00,,,0.00,858,Wunderground v.1.15,2013-08-21 18:51:00,
2013-08-21 11:57:00,62.8,56.2,29.95,NE,35,9.0,13.0,79,0.00,,,0.00,863,Wunderground v.1.15,2013-08-21 18:57:00,
2013-08-21 12:02:00,62.7,55.7,29.95,NNE,33,7.0,12.0,78,0.00,,,0.00,872,Wunderground v.1.15,2013-08-21 19:02:00,
2013-08-21 12:08:00,62.8,56.2,29.94,NNE,30,7.0,12.0,79,0.00,,,0.00,863,Wunderground v.1.15,2013-08-21 19:08:00,
2013-08-21 12:13:00,63.1,56.1,29.95,NNE,18,6.0,9.0,78,0.00,,,0.00,868,Wunderground v.1.15,2013-08-21 19:13:00,
2013-08-21 12:19:00,63.8,56.4,29.94,NNW,329,5.0,10.0,77,0.00,,,0.00,868,Wunderground v.1.15,2013-08-21 19:19:00,
2013-08-21 12:24:00,64.5,56.4,29.94,NNE,28,5.0,9.0,75,0.00,,,0.00,877,Wunderground v.1.15,2013-08-21 19:24:00,
2013-08-21 12:30:00,65.0,56.1,29.94,NNW,327,7.0,7.0,73,0.00,,,0.00,879,Wunderground v.1.15,2013-08-21 19:30:00,
2013-08-21 12:35:00,65.2,56.3,29.94,NW,326,7.0,14.0,73,0.00,,,0.00,881,Wunderground v.1.15,2013-08-21 19:35:00,
2013-08-21 12:41:00,65.4,56.1,29.94,NNE,17,5.0,8.0,72,0.00,,,0.00,893,Wunderground v.1.15,2013-08-21 19:41:00,
2013-08-21 12:46:00,65.4,56.1,29.94,NE,35,6.0,11.0,72,0.00,,,0.00,896,Wunderground v.1.15,2013-08-21 19:46:00,
2013-08-21 12:52:00,65.5,56.6,29.94,NE,40,7.0,7.0,73,0.00,,,0.00,900,Wunderground v.1.15,2013-08-21 19:52:00,
2013-08-21 12:58:00,66.3,57.0,29.94,NNE,31,4.0,8.0,72,0.00,,,0.00,902,Wunderground v.1.15,2013-08-21 19:58:00,
2013-08-21 13:03:00,67.0,56.9,29.93,NW,319,6.0,10.0,70,0.00,,,0.00,905,Wunderground v.1.15,2013-08-21 20:03:00,
2013-08-21 13:09:00,67.4,56.9,29.94,NNE,26,6.0,10.0,69,0.00,,,0.00,907,Wunderground v.1.15,2013-08-21 20:09:00,
2013-08-21 13:14:00,67.6,57.1,29.94,North,360,5.0,9.0,69,0.00,,,0.00,911,Wunderground v.1.15,2013-08-21 20:14:00,
2013-08-21 13:19:00,67.7,56.8,29.94,NNE,28,5.0,10.0,68,0.00,,,0.00,909,Wunderground v.1.15,2013-08-21 20:19:00,
2013-08-21 13:25:00,67.9,56.5,29.93,NE,40,6.0,10.0,67,0.00,,,0.00,907,Wunderground v.1.15,2013-08-21 20:25:00,
2013-08-21 13:30:00,68.1,56.7,29.93,NNW,335,6.0,9.0,67,0.00,,,0.00,905,Wunderground v.1.15,2013-08-21 20:30:00,
2013-08-21 13:36:00,68.4,56.6,29.93,North,355,6.0,9.0,66,0.00,,,0.00,907,Wunderground v.1.15,2013-08-21 20:36:00,
2013-08-21 13:41:00,68.5,56.7,29.93,NE,34,6.0,6.0,66,0.00,,,0.00,905,Wunderground v.1.15,2013-08-21 20:41:00,
2013-08-21 13:46:00,68.6,56.8,29.93,NE,35,5.0,10.0,66,0.00,,,0.00,904,Wunderground v.1.15,2013-08-21 20:46:00,
2013-08-21 13:52:00,69.1,57.3,29.93,NW,322,5.0,5.0,66,0.00,,,0.00,902,Wunderground v.1.15,2013-08-21 20:52:00,
2013-08-21 13:58:00,69.4,57.1,29.93,NNW,329,5.0,8.0,65,0.00,,,0.00,902,Wunderground v.1.15,2013-08-21 20:58:00,
2013-08-21 14:03:00,69.6,57.3,29.92,North,350,7.0,12.0,65,0.00,,,0.00,898,Wunderground v.1.15,2013-08-21 21:03:00,
2013-08-21 14:08:00,69.6,57.3,29.92,NNE,25,7.0,12.0,65,0.00,,,0.00,898,Wunderground v.1.15,2013-08-21 21:08:00,
2013-08-21 14:13:00,69.7,57.4,29.92,NNE,32,7.0,12.0,65,0.00,,,0.00,895,Wunderground v.1.15,2013-08-21 21:13:00,
2013-08-21 14:19:00,69.8,57.1,29.92,NNE,25,7.0,12.0,64,0.00,,,0.00,886,Wunderground v.1.15,2013-08-21 21:19:00,
2013-08-21 14:24:00,69.9,56.7,29.92,NNE,32,8.0,10.0,63,0.00,,,0.00,884,Wunderground v.1.15,2013-08-21 21:24:00,
2013-08-21 14:30:00,70.0,56.8,29.92,North,360,8.0,8.0,63,0.00,,,0.00,877,Wunderground v.1.15,2013-08-21 21:30:00,
2013-08-21 14:35:00,70.1,56.9,29.92,NE,36,8.0,13.0,63,0.00,,,0.00,872,Wunderground v.1.15,2013-08-21 21:35:00,
2013-08-21 14:40:00,69.9,56.7,29.92,North,5,8.0,8.0,63,0.00,,,0.00,865,Wunderground v.1.15,2013-08-21 21:40:00,
2013-08-21 14:46:00,69.5,56.8,29.91,NNE,18,10.0,13.0,64,0.00,,,0.00,860,Wunderground v.1.15,2013-08-21 21:46:00,
2013-08-21 14:52:00,69.4,56.7,29.91,North,10,9.0,9.0,64,0.00,,,0.00,842,Wunderground v.1.15,2013-08-21 21:52:00,
2013-08-21 14:58:00,69.7,56.5,29.91,NNE,19,8.0,11.0,63,0.00,,,0.00,840,Wunderground v.1.15,2013-08-21 21:58:00,
2013-08-21 15:03:00,69.5,56.3,29.90,NNE,12,9.0,15.0,63,0.00,,,0.00,835,Wunderground v.1.15,2013-08-21 22:03:00,
2013-08-21 15:09:00,69.4,56.7,29.90,NNE,24,9.0,15.0,64,0.00,,,0.00,823,Wunderground v.1.15,2013-08-21 22:09:00,
2013-08-21 15:14:00,69.2,56.1,29.90,NE,38,9.0,14.0,63,0.00,,,0.00,814,Wunderground v.1.15,2013-08-21 22:14:00,
2013-08-21 15:19:00,69.3,56.6,29.90,NNE,19,9.0,14.0,64,0.00,,,0.00,807,Wunderground v.1.15,2013-08-21 22:19:00,
2013-08-21 15:25:00,68.9,56.2,29.90,NNW,344,9.0,10.0,64,0.00,,,0.00,795,Wunderground v.1.15,2013-08-21 22:25:00,
2013-08-21 15:30:00,68.8,56.1,29.90,NNE,18,10.0,10.0,64,0.00,,,0.00,784,Wunderground v.1.15,2013-08-21 22:30:00,
2013-08-21 15:35:00,68.5,56.3,29.90,NNE,17,9.0,16.0,65,0.00,,,0.00,773,Wunderground v.1.15,2013-08-21 22:35:00,
2013-08-21 15:41:00,68.6,56.4,29.89,NE,41,9.0,12.0,65,0.00,,,0.00,763,Wunderground v.1.15,2013-08-21 22:41:00,
2013-08-21 15:46:00,68.3,56.1,29.89,NNE,14,10.0,12.0,65,0.00,,,0.00,751,Wunderground v.1.15,2013-08-21 22:46:00,
2013-08-21 15:51:00,68.3,56.5,29.89,NNW,338,10.0,11.0,66,0.00,,,0.00,744,Wunderground v.1.15,2013-08-21 22:51:00,
2013-08-21 15:57:00,68.5,56.3,29.89,NNE,12,9.0,14.0,65,0.00,,,0.00,726,Wunderground v.1.15,2013-08-21 22:57:00,
2013-08-21 16:02:00,68.6,56.4,29.89,NNE,18,10.0,15.0,65,0.00,,,0.00,693,Wunderground v.1.15,2013-08-21 23:02:00,
2013-08-21 16:07:00,68.5,56.3,29.89,NNE,28,10.0,15.0,65,0.00,,,0.00,703,Wunderground v.1.15,2013-08-21 23:07:00,
2013-08-21 16:12:00,68.6,56.4,29.89,NNE,29,10.0,15.0,65,0.00,,,0.00,689,Wunderground v.1.15,2013-08-21 23:12:00,
2013-08-21 16:18:00,68.3,56.1,29.89,North,5,11.0,15.0,65,0.00,,,0.00,675,Wunderground v.1.15,2013-08-21 23:18:00,
2013-08-21 16:23:00,68.1,56.3,29.89,NNE,16,11.0,12.0,66,0.00,,,0.00,661,Wunderground v.1.15,2013-08-21 23:23:00,
2013-08-21 16:29:00,67.7,56.3,29.89,North,360,11.0,12.0,67,0.00,,,0.00,643,Wunderground v.1.15,2013-08-21 23:29:00,
2013-08-21 16:35:00,67.8,56.4,29.88,NNE,24,10.0,13.0,67,0.00,,,0.00,629,Wunderground v.1.15,2013-08-21 23:35:00,
2013-08-21 16:40:00,67.8,56.4,29.88,NNE,27,10.0,10.0,67,0.00,,,0.00,612,Wunderground v.1.15,2013-08-21 23:40:00,
2013-08-21 16:45:00,67.5,56.2,29.88,North,9,10.0,12.0,67,0.00,,,0.00,594,Wunderground v.1.15,2013-08-21 23:45:00,
2013-08-21 16:51:00,67.3,56.4,29.88,NNE,19,10.0,13.0,68,0.00,,,0.00,585,Wunderground v.1.15,2013-08-21 23:51:00,
2013-08-21 16:56:00,67.1,56.2,29.88,North,11,11.0,13.0,68,0.00,,,0.00,555,Wunderground v.1.15,2013-08-21 23:56:00,
2013-08-21 17:01:00,67.1,56.6,29.88,North,5,9.0,12.0,69,0.00,,,0.00,552,Wunderground v.1.15,2013-08-22 00:01:00,
2013-08-21 17:07:00,67.2,56.3,29.88,NNE,23,9.0,14.0,68,0.00,,,0.00,520,Wunderground v.1.15,2013-08-22 00:07:00,
2013-08-21 17:12:00,66.8,55.9,29.88,NNW,348,11.0,13.0,68,0.00,,,0.00,492,Wunderground v.1.15,2013-08-22 00:12:00,
2013-08-21 17:18:00,66.6,56.1,29.88,NNE,32,11.0,14.0,69,0.00,,,0.00,439,Wunderground v.1.15,2013-08-22 00:18:00,
2013-08-21 17:23:00,66.3,55.8,29.88,North,360,10.0,13.0,69,0.00,,,0.00,429,Wunderground v.1.15,2013-08-22 00:23:00,
2013-08-21 17:28:00,65.9,55.8,29.89,NNE,15,11.0,13.0,70,0.00,,,0.00,418,Wunderground v.1.15,2013-08-22 00:28:00,
2013-08-21 17:34:00,65.7,55.6,29.89,NNE,26,11.0,15.0,70,0.00,,,0.00,403,Wunderground v.1.15,2013-08-22 00:34:00,
2013-08-21 17:39:00,65.3,55.7,29.89,North,5,11.0,15.0,71,0.00,,,0.00,431,Wunderground v.1.15,2013-08-22 00:39:00,
2013-08-21 17:44:00,65.0,55.8,29.89,NNW,342,11.0,14.0,72,0.00,,,0.00,417,Wunderground v.1.15,2013-08-22 00:44:00,
2013-08-21 17:49:00,64.9,55.7,29.89,North,360,11.0,16.0,72,0.00,,,0.00,396,Wunderground v.1.15,2013-08-22 00:49:00,
2013-08-21 17:55:00,64.7,55.5,29.89,North,11,11.0,13.0,72,0.00,,,0.00,380,Wunderground v.1.15,2013-08-22 00:55:00,
2013-08-21 18:00:00,64.7,55.8,29.89,NNE,32,10.0,12.0,73,0.00,,,0.00,364,Wunderground v.1.15,2013-08-22 01:00:00,
2013-08-21 18:05:00,64.5,55.7,29.89,NNE,19,11.0,13.0,73,0.00,,,0.00,346,Wunderground v.1.15,2013-08-22 01:05:00,
2013-08-21 18:11:00,64.5,55.7,29.89,North,5,11.0,11.0,73,0.00,,,0.00,325,Wunderground v.1.15,2013-08-22 01:11:00,
2013-08-21 18:16:00,64.3,55.5,29.90,NNE,15,11.0,15.0,73,0.00,,,0.00,306,Wunderground v.1.15,2013-08-22 01:16:00,
2013-08-21 18:21:00,64.0,55.2,29.90,NNE,29,12.0,14.0,73,0.00,,,0.00,287,Wunderground v.1.15,2013-08-22 01:21:00,
2013-08-21 18:27:00,63.5,55.1,29.90,North,5,12.0,14.0,74,0.00,,,0.00,267,Wunderground v.1.15,2013-08-22 01:27:00,
2013-08-21 18:32:00,63.1,54.7,29.90,NNE,30,12.0,13.0,74,0.00,,,0.00,246,Wunderground v.1.15,2013-08-22 01:32:00,
2013-08-21 18:37:00,62.8,55.1,29.90,North,11,12.0,15.0,76,0.00,,,0.00,230,Wunderground v.1.15,2013-08-22 01:37:00,
2013-08-21 18:42:00,62.6,54.9,29.90,NNE,21,12.0,13.0,76,0.00,,,0.00,211,Wunderground v.1.15,2013-08-22 01:42:00,
2013-08-21 18:48:00,62.4,55.1,29.91,NNE,25,12.0,15.0,77,0.00,,,0.00,190,Wunderground v.1.15,2013-08-22 01:48:00,
2013-08-21 18:53:00,62.1,54.8,29.91,NNE,24,12.0,16.0,77,0.00,,,0.00,171,Wunderground v.1.15,2013-08-22 01:53:00,
2013-08-21 18:58:00,61.7,54.8,29.91,NE,45,13.0,16.0,78,0.00,,,0.00,149,Wunderground v.1.15,2013-08-22 01:58:00,
2013-08-21 19:04:00,61.4,54.8,29.91,NNE,12,13.0,15.0,79,0.00,,,0.00,125,Wunderground v.1.15,2013-08-22 02:04:00,
2013-08-21 19:10:00,61.1,54.9,29.90,NNE,17,12.0,12.0,80,0.00,,,0.00,105,Wunderground v.1.15,2013-08-22 02:10:00,
2013-08-21 19:15:00,60.9,55.0,29.90,NNE,24,10.0,12.0,81,0.00,,,0.00,84,Wunderground v.1.15,2013-08-22 02:15:00,
2013-08-21 19:20:00,60.7,54.8,29.90,NNE,13,9.0,9.0,81,0.00,,,0.00,67,Wunderground v.1.15,2013-08-22 02:20:00,
2013-08-21 19:26:00,60.5,54.6,29.91,NE,37,9.0,13.0,81,0.00,,,0.00,49,Wunderground v.1.15,2013-08-22 02:26:00,
2013-08-21 19:31:00,60.3,54.8,29.91,NNE,19,10.0,10.0,82,0.00,,,0.00,35,Wunderground v.1.15,2013-08-22 02:31:00,
2013-08-21 19:36:00,60.0,54.5,29.91,North,355,9.0,10.0,82,0.00,,,0.00,25,Wunderground v.1.15,2013-08-22 02:36:00,
2013-08-21 19:41:00,59.8,54.6,29.91,North,360,8.0,8.0,83,0.00,,,0.00,16,Wunderground v.1.15,2013-08-22 02:41:00,
2013-08-21 19:47:00,59.6,54.8,29.92,NNE,26,9.0,13.0,84,0.00,,,0.00,9,Wunderground v.1.15,2013-08-22 02:47:00,
2013-08-21 19:52:00,59.3,54.8,29.92,NNE,20,10.0,11.0,85,0.00,,,0.00,5,Wunderground v.1.15,2013-08-22 02:52:00,
2013-08-21 19:57:00,59.0,54.5,29.92,NNE,25,9.0,11.0,85,0.00,,,0.00,0,Wunderground v.1.15,2013-08-22 02:57:00,
2013-08-21 20:03:00,58.6,54.4,29.92,North,9,9.0,10.0,86,0.00,,,0.00,0,Wunderground v.1.15,2013-08-22 03:03:00,
2013-08-21 20:08:00,58.3,54.4,29.92,NNE,14,10.0,13.0,87,0.00,,,0.00,0,Wunderground v.1.15,2013-08-22 03:08:00,
2013-08-21 20:13:00,58.0,54.2,29.92,NNE,17,11.0,14.0,87,0.00,,,0.00,0,Wunderground v.1.15,2013-08-22 03:13:00,
2013-08-21 20:19:00,57.7,53.9,29.93,NE,42,11.0,14.0,87,0.00,,,0.00,0,Wunderground v.1.15,2013-08-22 03:19:00,
2013-08-21 20:24:00,57.5,54.0,29.93,North,5,10.0,12.0,88,0.00,,,0.00,0,Wunderground v.1.15,2013-08-22 03:24:00,
2013-08-21 20:29:00,57.4,53.9,29.93,NNE,24,8.0,12.0,88,0.00,,,0.00,0,Wunderground v.1.15,2013-08-22 03:29:00,
2013-08-21 20:35:00,57.3,53.8,29.93,NNE,25,9.0,12.0,88,0.00,,,0.00,0,Wunderground v.1.15,2013-08-22 03:35:00,
2013-08-21 20:40:00,57.2,54.0,29.93,NNE,15,10.0,10.0,89,0.00,,,0.00,0,Wunderground v.1.15,2013-08-22 03:40:00,
2013-08-21 20:46:00,57.1,53.9,29.93,NNE,24,9.0,14.0,89,0.00,,,0.00,0,Wunderground v.1.15,2013-08-22 03:46:00,
2013-08-21 20:51:00,57.0,53.8,29.93,NNE,30,9.0,13.0,89,0.00,,,0.00,0,Wunderground v.1.15,2013-08-22 03:51:00,
2013-08-21 20:57:00,57.0,54.1,29.93,NE,41,10.0,15.0,90,0.00,,,0.00,0,Wunderground v.1.15,2013-08-22 03:57:00,
2013-08-21 21:01:00,56.9,54.0,29.94,NE,37,11.0,12.0,90,0.00,,,0.00,0,Wunderground v.1.15,2013-08-22 04:01:00,
2013-08-21 21:03:00,56.9,54.0,29.94,North,5,11.0,12.0,90,0.00,,,0.00,0,Wunderground v.1.15,2013-08-22 04:03:00,
2013-08-21 21:04:00,56.9,54.0,29.94,NNE,20,11.0,12.0,90,0.00,,,0.00,0,Wunderground v.1.15,2013-08-22 04:04:00,
2013-08-21 21:05:00,56.9,54.0,29.94,NE,38,11.0,12.0,90,0.00,,,0.00,0,Wunderground v.1.15,2013-08-22 04:05:00,
2013-08-21 21:07:00,56.8,53.9,29.94,North,9,10.0,12.0,90,0.00,,,0.00,0,Wunderground v.1.15,2013-08-22 04:07:00,
2013-08-21 21:12:00,56.8,53.9,29.94,NNE,21,9.0,10.0,90,0.00,,,0.00,0,Wunderground v.1.15,2013-08-22 04:12:00,
2013-08-21 21:17:00,56.8,53.9,29.94,North,5,8.0,12.0,90,0.00,,,0.00,0,Wunderground v.1.15,2013-08-22 04:17:00,
2013-08-21 21:23:00,56.8,53.9,29.94,NNE,23,8.0,10.0,90,0.00,,,0.00,0,Wunderground v.1.15,2013-08-22 04:23:00,
2013-08-21 21:28:00,56.8,53.9,29.94,NNE,26,7.0,10.0,90,0.00,,,0.00,0,Wunderground v.1.15,2013-08-22 04:28:00,
2013-08-21 21:34:00,56.8,53.9,29.94,NNE,20,6.0,9.0,90,0.00,,,0.00,0,Wunderground v.1.15,2013-08-22 04:34:00,
2013-08-21 21:39:00,56.8,53.9,29.94,NNE,24,7.0,10.0,90,0.00,,,0.00,0,Wunderground v.1.15,2013-08-22 04:39:00,
2013-08-21 21:45:00,56.8,53.9,29.94,North,11,7.0,7.0,90,0.00,,,0.00,0,Wunderground v.1.15,2013-08-22 04:45:00,
2013-08-21 21:51:00,56.8,54.2,29.94,North,11,7.0,8.0,91,0.00,,,0.00,0,Wunderground v.1.15,2013-08-22 04:51:00,
2013-08-21 21:56:00,56.8,54.2,29.94,NE,37,5.0,6.0,91,0.00,,,0.00,0,Wunderground v.1.15,2013-08-22 04:56:00,
2013-08-21 22:15:00,56.6,54.0,29.95,NNE,21,4.0,8.0,91,0.00,,,0.00,0,Wunderground v.1.15,2013-08-22 05:15:00,
2013-08-21 22:20:00,56.6,54.0,29.95,NE,34,5.0,6.0,91,0.00,,,0.00,0,Wunderground v.1.15,2013-08-22 05:20:00,
2013-08-21 22:26:00,56.6,54.0,29.94,NE,35,5.0,6.0,91,0.00,,,0.00,0,Wunderground v.1.15,2013-08-22 05:26:00,
2013-08-21 22:31:00,56.6,54.0,29.94,NE,34,4.0,4.0,91,0.00,,,0.00,0,Wunderground v.1.15,2013-08-22 05:31:00,
2013-08-21 22:37:00,56.5,53.9,29.94,NE,34,1.0,4.0,91,0.00,,,0.00,0,Wunderground v.1.15,2013-08-22 05:37:00,
2013-08-21 22:43:00,56.5,53.9,29.95,NNE,24,2.0,6.0,91,0.00,,,0.00,0,Wunderground v.1.15,2013-08-22 05:43:00,
2013-08-21 22:48:00,56.4,53.8,29.95,NNE,24,4.0,6.0,91,0.00,,,0.00,0,Wunderground v.1.15,2013-08-22 05:48:00,
2013-08-21 22:54:00,56.2,53.6,29.95,NNE,22,5.0,8.0,91,0.00,,,0.00,0,Wunderground v.1.15,2013-08-22 05:54:00,
2013-08-21 22:59:00,56.1,53.5,29.95,NNE,18,5.0,8.0,91,0.00,,,0.00,0,Wunderground v.1.15,2013-08-22 05:59:00,
2013-08-21 23:04:00,56.1,53.5,29.95,NNE,18,5.0,7.0,91,0.00,,,0.00,0,Wunderground v.1.15,2013-08-22 06:04:00,
2013-08-21 23:10:00,56.0,53.4,29.95,NNE,18,3.0,4.0,91,0.00,,,0.00,0,Wunderground v.1.15,2013-08-22 06:10:00,
2013-08-21 23:15:00,55.9,53.3,29.95,NNE,22,3.0,5.0,91,0.00,,,0.00,0,Wunderground v.1.15,2013-08-22 06:15:00,
2013-08-21 23:21:00,55.9,53.3,29.95,NNE,22,1.0,5.0,91,0.00,,,0.00,0,Wunderground v.1.15,2013-08-22 06:21:00,
2013-08-21 23:26:00,55.9,53.3,29.95,NNE,22,2.0,5.0,91,0.00,,,0.00,0,Wunderground v.1.15,2013-08-22 06:26:00,
2013-08-21 23:31:00,55.8,53.5,29.95,NNE,25,1.0,2.0,92,0.00,,,0.00,0,Wunderground v.1.15,2013-08-22 06:31:00,
2013-08-21 23:37:00,55.8,53.5,29.95,NNE,26,0.0,3.0,92,0.00,,,0.00,0,Wunderground v.1.15,2013-08-22 06:37:00,
2013-08-21 23:42:00,55.7,53.4,29.94,NNE,28,0.0,0.0,92,0.00,,,0.00,0,Wunderground v.1.15,2013-08-22 06:42:00,
2013-08-21 23:49:00,55.7,53.4,29.95,NNE,27,0.0,0.0,92,0.00,,,0.00,0,Wunderground v.1.15,2013-08-22 06:49:00,
2013-08-21 23:54:00,55.7,53.4,29.95,NNE,28,0.0,0.0,92,0.00,,,0.00,0,Wunderground v.1.15,2013-08-22 06:54:00,